KCON/CON METAR and TAF weather

Enter ICAO airport designator
Station Type Date Time Source
KCON METAR 2021/05/14 22:51 UTC NOAA

KCON 142251Z AUTO 29008KT 10SM CLR 23/M01 A3008 RMK AO2 SLP188 T02281011


Station Type Date Time Source
KCON Decoded METAR 2021/05/14 22:51 UTC NOAA

Concord, Concord Municipal Airport, NH, United States (KCON) 43-11-43N 071-30-04W 103M
May 14, 2021 - 06:51 PM EDT / 2021.05.14 2251 UTC
Wind: from the WNW (290 degrees) at 9 MPH (8 KT):0
Visibility: 10 mile(s):0
Sky conditions: clear
Temperature: 73.0 F (22.8 C)
Dew Point: 30.0 F (-1.1 C)
Relative Humidity: 20%
Pressure (altimeter): 30.08 in. Hg (1018 hPa)
ob: KCON 142251Z AUTO 29008KT 10SM CLR 23/M01 A3008 RMK AO2 SLP188 T02281011
cycle: 23

Station Type Date Time Source
KCON TAF 2021/05/14 18:45 UTC NOAA

KCON 141739Z 1418/1518 31009G16KT P6SM BKN100
FM150000 29005KT P6SM SCT250

Example: see airport list